createdAt,value
2023-04-23T00:01:47.907Z,99101.13
2023-04-23T00:04:18.291Z,99097.97
2023-04-23T00:06:46.793Z,99102.47
2023-04-23T00:09:16.799Z,99095.31
2023-04-23T00:11:43.582Z,99095.56
2023-04-23T00:14:10.607Z,99084.16
2023-04-23T00:16:38.091Z,99083.38
2023-04-23T00:19:04.680Z,99081.00
2023-04-23T00:21:31.862Z,99072.25
2023-04-23T00:23:58.427Z,99067.78
2023-04-23T00:26:24.971Z,99071.47
2023-04-23T00:28:51.601Z,99073.34
2023-04-23T00:31:18.270Z,99062.72
2023-04-23T00:33:44.810Z,99052.66
2023-04-23T00:36:11.483Z,99049.22
2023-04-23T00:38:38.034Z,99055.31
2023-04-23T00:41:05.127Z,99050.28
2023-04-23T00:43:32.195Z,99043.66
2023-04-23T00:45:58.762Z,99046.88
2023-04-23T00:48:26.131Z,99047.13
2023-04-23T00:51:00.581Z,99049.53
2023-04-23T00:53:27.359Z,99040.53
2023-04-23T00:55:54.738Z,99039.47
2023-04-23T00:58:21.629Z,99033.91
2023-04-23T01:00:49.207Z,99039.22
2023-04-23T01:03:18.512Z,99027.81
2023-04-23T01:05:45.546Z,99027.03
2023-04-23T01:08:15.251Z,99027.56
2023-04-23T01:10:43.984Z,99024.94
2023-04-23T01:13:12.854Z,99026.25
2023-04-23T01:15:39.492Z,99025.19
2023-04-23T01:18:07.882Z,99020.94
2023-04-23T01:20:35.588Z,99016.72
2023-04-23T01:23:05.781Z,99013.53
2023-04-23T01:25:32.663Z,99012.75
2023-04-23T01:27:59.472Z,99010.91
2023-04-23T01:30:27.653Z,99011.16
2023-04-23T01:32:57.915Z,99017.25
2023-04-23T01:35:25.380Z,99013.56
2023-04-23T01:37:52.650Z,99008.53
2023-04-23T01:40:20.971Z,99010.13
2023-04-23T01:42:48.311Z,99006.69
2023-04-23T01:45:14.868Z,99006.69
2023-04-23T01:47:42.118Z,98994.75
2023-04-23T01:50:09.900Z,98991.59
2023-04-23T01:52:36.596Z,98996.13
2023-04-23T01:55:03.509Z,98989.22
2023-04-23T01:57:30.107Z,98992.94
2023-04-23T02:00:08.957Z,98988.16
2023-04-23T02:02:35.911Z,98989.50
2023-04-23T02:05:06.196Z,98992.44
2023-04-23T02:07:33.932Z,98984.22
2023-04-23T02:10:01.737Z,98976.53
2023-04-23T02:12:28.264Z,98977.59
2023-04-23T02:14:55.123Z,98972.59
2023-04-23T02:17:23.053Z,98977.09
2023-04-23T02:19:50.058Z,98979.22
2023-04-23T02:22:18.087Z,98974.69
2023-04-23T02:24:44.651Z,98969.94
2023-04-23T02:27:11.374Z,98977.88
2023-04-23T02:29:37.898Z,98977.38
2023-04-23T02:32:04.613Z,98972.31
2023-04-23T02:34:31.111Z,98974.72
2023-04-23T02:36:57.636Z,98970.25
2023-04-23T02:39:24.160Z,98979.22
2023-04-23T02:41:50.897Z,98969.19
2023-04-23T02:44:17.420Z,98967.59
2023-04-23T02:46:44.033Z,98963.13
2023-04-23T02:49:10.568Z,98958.34
2023-04-23T02:51:37.104Z,98970.81
2023-04-23T02:54:04.147Z,98961.25
2023-04-23T02:56:30.783Z,98962.03
2023-04-23T02:58:57.406Z,98954.09
2023-04-23T03:01:23.981Z,98943.50
2023-04-23T03:03:50.996Z,98949.06
2023-04-23T03:06:17.979Z,98943.25
2023-04-23T03:08:44.614Z,98946.69
2023-04-23T03:11:11.088Z,98948.53
2023-04-23T03:13:37.656Z,98949.59
2023-04-23T03:16:04.677Z,98941.41
2023-04-23T03:18:31.173Z,98948.28
2023-04-23T03:20:57.681Z,98941.41
2023-04-23T03:23:25.245Z,98941.69
2023-04-23T03:25:51.769Z,98938.75
2023-04-23T03:28:18.382Z,98941.16
2023-04-23T03:30:45.182Z,98934.53
2023-04-23T03:33:11.918Z,98940.13
2023-04-23T03:35:38.528Z,98938.25
2023-04-23T03:38:05.071Z,98936.66
2023-04-23T03:40:31.586Z,98940.13
2023-04-23T03:42:58.184Z,98938.78
2023-04-23T03:45:25.444Z,98930.84
2023-04-23T03:47:51.964Z,98938.78
2023-04-23T03:50:18.626Z,98938.25
2023-04-23T03:52:45.101Z,98932.94
2023-04-23T03:55:12.212Z,98943.28
2023-04-23T03:57:38.808Z,98937.22
2023-04-23T04:00:12.106Z,98937.44
2023-04-23T04:02:39.533Z,98936.94
2023-04-23T04:05:06.962Z,98931.09
2023-04-23T04:07:34.368Z,98930.59
2023-04-23T04:10:03.249Z,98931.66
2023-04-23T04:12:29.843Z,98921.84
2023-04-23T04:14:56.459Z,98933.22
2023-04-23T04:17:23.034Z,98927.16
2023-04-23T04:19:49.635Z,98924.22
2023-04-23T04:22:16.269Z,98920.78
2023-04-23T04:24:43.899Z,98930.31
2023-04-23T04:27:11.707Z,98928.22
2023-04-23T04:29:40.834Z,98922.38
2023-04-23T04:32:11.317Z,98913.13
2023-04-23T04:34:38.421Z,98911.28
2023-04-23T04:37:05.329Z,98909.94
2023-04-23T04:39:31.799Z,98916.81
2023-04-23T04:41:59.939Z,98905.72
2023-04-23T04:44:26.491Z,98906.50
2023-04-23T04:46:53.931Z,98919.47
2023-04-23T04:49:21.929Z,98917.88
2023-04-23T04:51:48.578Z,98909.69
2023-04-23T04:54:15.545Z,98913.38
2023-04-23T04:56:42.049Z,98913.38
2023-04-23T04:59:08.563Z,98918.66
2023-04-23T05:01:36.146Z,98915.25
2023-04-23T05:04:03.004Z,98918.16
2023-04-23T05:06:29.865Z,98915.25
2023-04-23T05:08:56.367Z,98913.66
2023-04-23T05:11:22.888Z,98914.44
2023-04-23T05:13:49.499Z,98910.22
2023-04-23T05:16:16.107Z,98911.00
2023-04-23T05:18:42.750Z,98911.81
2023-04-23T05:21:11.854Z,98904.13
2023-04-23T05:23:38.414Z,98904.94
2023-04-23T05:26:05.158Z,98905.72
2023-04-23T05:28:31.747Z,98904.66
2023-04-23T05:30:58.548Z,98904.66
2023-04-23T05:33:33.352Z,98909.16
2023-04-23T05:36:03.174Z,98904.41
2023-04-23T05:38:29.822Z,98905.44
2023-04-23T05:40:56.415Z,98906.50
2023-04-23T05:43:22.979Z,98910.19
2023-04-23T05:45:49.471Z,98911.28
2023-04-23T05:48:16.043Z,98911.53
2023-04-23T05:50:42.728Z,98920.00
2023-04-23T05:53:09.269Z,98919.22
2023-04-23T05:55:36.008Z,98921.31
2023-04-23T05:58:02.659Z,98914.16
2023-04-23T06:00:29.343Z,98915.50
2023-04-23T06:02:55.991Z,98920.78
2023-04-23T06:05:22.970Z,98919.72
2023-04-23T06:07:49.673Z,98923.44
2023-04-23T06:10:16.296Z,98927.94
2023-04-23T06:12:42.922Z,98924.50
2023-04-23T06:15:10.335Z,98918.94
2023-04-23T06:17:37.244Z,98916.28
2023-04-23T06:20:05.150Z,98914.97
2023-04-23T06:22:34.848Z,98917.59
2023-04-23T06:25:01.513Z,98924.75
2023-04-23T06:27:28.132Z,98921.84
2023-04-23T06:29:55.813Z,98927.91
2023-04-23T06:32:23.050Z,98925.00
2023-04-23T06:34:59.362Z,98927.38
2023-04-23T06:37:29.800Z,98914.16
2023-04-23T06:39:56.724Z,98923.41
2023-04-23T06:42:23.393Z,98919.41
2023-04-23T06:44:51.898Z,98920.75
2023-04-23T06:47:19.643Z,98921.28
2023-04-23T06:49:46.253Z,98917.31
2023-04-23T06:52:12.902Z,98915.44
2023-04-23T06:54:39.790Z,98921.28
2023-04-23T06:57:06.708Z,98908.28
2023-04-23T06:59:33.197Z,98909.59
2023-04-23T07:01:59.803Z,98912.78
2023-04-23T07:04:26.355Z,98909.06
2023-04-23T07:06:52.896Z,98909.84
2023-04-23T07:09:19.982Z,98919.09
2023-04-23T07:11:46.736Z,98907.72
2023-04-23T07:14:13.300Z,98903.22
2023-04-23T07:16:39.851Z,98910.63
2023-04-23T07:19:06.375Z,98906.13
2023-04-23T07:21:33.040Z,98910.34
2023-04-23T07:24:08.638Z,98911.91
2023-04-23T07:26:36.208Z,98916.97
2023-04-23T07:29:04.688Z,98917.75
2023-04-23T07:31:31.334Z,98923.06
2023-04-23T07:33:58.019Z,98923.56
2023-04-23T07:36:24.682Z,98924.63
2023-04-23T07:38:51.276Z,98921.69
2023-04-23T07:41:18.514Z,98920.66
2023-04-23T07:43:45.309Z,98923.56
2023-04-23T07:46:12.127Z,98927.81
2023-04-23T07:48:38.703Z,98927.81
2023-04-23T07:51:06.484Z,98930.47
2023-04-23T07:53:33.130Z,98932.03
2023-04-23T07:56:00.567Z,98930.47
2023-04-23T07:58:27.187Z,98927.81
2023-04-23T08:00:53.719Z,98934.69
2023-04-23T08:03:20.576Z,98933.09
2023-04-23T08:05:47.470Z,98935.47
2023-04-23T08:08:14.124Z,98935.75
2023-04-23T08:10:40.941Z,98932.03
2023-04-23T08:13:07.995Z,98938.41
2023-04-23T08:15:34.492Z,98937.59
2023-04-23T08:18:01.119Z,98941.31
2023-04-23T08:20:27.727Z,98943.97
2023-04-23T08:22:54.845Z,98945.53
2023-04-23T08:25:21.485Z,98950.84
2023-04-23T08:27:48.033Z,98950.56
2023-04-23T08:30:14.891Z,98952.69
2023-04-23T08:32:41.775Z,98955.88
2023-04-23T08:35:09.411Z,98954.81
2023-04-23T08:37:36.017Z,98958.53
2023-04-23T08:40:02.538Z,98963.81
2023-04-23T08:42:37.862Z,98960.38
2023-04-23T08:45:05.615Z,98960.09
2023-04-23T08:47:32.688Z,98959.81
2023-04-23T08:49:59.892Z,98957.72
2023-04-23T08:52:29.258Z,98966.16
2023-04-23T08:55:01.059Z,98957.41
2023-04-23T08:57:27.811Z,98970.41
2023-04-23T08:59:55.470Z,98964.84
2023-04-23T09:02:23.178Z,98967.22
2023-04-23T09:04:51.763Z,98967.22
2023-04-23T09:07:19.420Z,98963.50
2023-04-23T09:09:46.096Z,98969.31
2023-04-23T09:12:12.607Z,98980.69
2023-04-23T09:14:39.197Z,98974.34
2023-04-23T09:17:05.854Z,98973.28
2023-04-23T09:19:32.565Z,98978.31
2023-04-23T09:22:02.086Z,98968.50
2023-04-23T09:24:28.696Z,98972.47
2023-04-23T09:26:55.244Z,98970.59
2023-04-23T09:29:23.736Z,98962.13
2023-04-23T09:32:06.309Z,98963.69
2023-04-23T09:34:35.664Z,98961.28
2023-04-23T09:37:03.724Z,98966.06
2023-04-23T09:39:30.558Z,98964.72
2023-04-23T09:42:03.304Z,98965.47
2023-04-23T09:44:32.533Z,98963.06
2023-04-23T09:47:09.715Z,98965.44
2023-04-23T09:49:49.585Z,98974.66
2023-04-23T09:52:16.459Z,98973.56
2023-04-23T09:54:43.400Z,98979.59
2023-04-23T09:57:11.682Z,98976.41
2023-04-23T09:59:47.878Z,98981.16
2023-04-23T10:02:16.786Z,98980.63
2023-04-23T10:04:43.668Z,98989.09
2023-04-23T10:07:19.791Z,98986.97
2023-04-23T10:09:47.323Z,98988.53
2023-04-23T10:14:46.080Z,98992.50
2023-04-23T10:17:12.852Z,98990.91
2023-04-23T10:19:41.540Z,98991.72
2023-04-23T10:22:19.480Z,98995.16
2023-04-23T10:24:51.540Z,98989.84
2023-04-23T10:29:49.680Z,98995.66
2023-04-23T10:32:17.687Z,99000.72
2023-04-23T10:34:45.492Z,98995.91
2023-04-23T10:37:15.150Z,99006.53
2023-04-23T10:39:44.700Z,99010.25
2023-04-23T10:42:13.550Z,99017.13
2023-04-23T10:47:16.217Z,99018.22
2023-04-23T10:49:44.291Z,99015.56
2023-04-23T10:52:19.999Z,99019.28
2023-04-23T10:54:59.538Z,99008.66
2023-04-23T10:57:26.008Z,99011.31
2023-04-23T10:59:58.936Z,99007.59
2023-04-23T11:02:26.345Z,99006.81
2023-04-23T11:05:01.491Z,99008.38
2023-04-23T11:07:32.805Z,99003.88
2023-04-23T11:10:00.996Z,99005.72
2023-04-23T11:12:27.572Z,99004.66
2023-04-23T11:14:55.511Z,99012.63
2023-04-23T11:17:24.556Z,99008.09
2023-04-23T11:20:13.916Z,99009.16
2023-04-23T11:22:43.501Z,99012.63
2023-04-23T11:25:34.004Z,99000.44
2023-04-23T11:28:00.546Z,99007.31
2023-04-23T11:30:32.050Z,99010.75
2023-04-23T11:33:00.566Z,99012.63
2023-04-23T11:35:28.602Z,99022.97
2023-04-23T11:37:56.519Z,99013.69
2023-04-23T11:40:24.518Z,99019.53
2023-04-23T11:42:54.583Z,99020.31
2023-04-23T11:45:28.614Z,99013.94
2023-04-23T11:47:57.405Z,99032.22
2023-04-23T11:50:25.662Z,99026.66
2023-04-23T11:52:52.920Z,99029.03
2023-04-23T11:55:20.784Z,99030.34
2023-04-23T11:57:50.949Z,99031.63
2023-04-23T12:00:23.495Z,99037.94
2023-04-23T12:02:58.514Z,99036.34
2023-04-23T12:05:36.902Z,99042.47
2023-04-23T12:08:16.202Z,99049.59
2023-04-23T12:10:44.346Z,99046.97
2023-04-23T12:13:18.125Z,99042.72
2023-04-23T12:15:50.252Z,99052.56
2023-04-23T12:18:17.355Z,99050.94
2023-04-23T12:20:44.806Z,99048.56
2023-04-23T12:23:11.566Z,99052.78
2023-04-23T12:25:40.862Z,99053.59
2023-04-23T12:28:07.413Z,99058.09
2023-04-23T12:30:35.488Z,99062.63
2023-04-23T12:33:03.384Z,99063.41
2023-04-23T12:35:41.431Z,99064.19
2023-04-23T12:38:08.321Z,99059.19
2023-04-23T12:40:34.811Z,99060.75
2023-04-23T12:43:01.354Z,99060.22
2023-04-23T12:45:37.027Z,99059.44
2023-04-23T12:48:03.649Z,99060.50
2023-04-23T12:50:30.264Z,99056.00
2023-04-23T12:52:56.753Z,99059.72
2023-04-23T12:55:23.264Z,99052.56
2023-04-23T12:57:49.758Z,99057.88
2023-04-23T13:00:16.843Z,99063.97
2023-04-23T13:02:43.638Z,99063.97
2023-04-23T13:05:10.371Z,99068.19
2023-04-23T13:07:36.876Z,99072.44
2023-04-23T13:10:03.570Z,99067.94
2023-04-23T13:12:30.290Z,99068.72
2023-04-23T13:14:57.034Z,99067.66
2023-04-23T13:17:25.344Z,99065.00
2023-04-23T13:19:53.126Z,99067.09
2023-04-23T13:22:19.645Z,99068.41
2023-04-23T13:24:46.230Z,99063.34
2023-04-23T13:27:13.019Z,99066.25
2023-04-23T13:29:40.314Z,99063.06
2023-04-23T13:32:07.258Z,99063.00
2023-04-23T13:34:34.523Z,99059.25
2023-04-23T13:37:05.452Z,99055.22
2023-04-23T13:39:32.383Z,99059.38
2023-04-23T13:42:08.983Z,99057.69
2023-04-23T13:44:36.244Z,99068.25
2023-04-23T13:47:03.281Z,99062.81
2023-04-23T13:49:29.776Z,99070.69
2023-04-23T13:52:00.343Z,99065.84
2023-04-23T13:54:29.520Z,99068.94
2023-04-23T13:56:56.187Z,99062.81
2023-04-23T13:59:23.919Z,99064.88
2023-04-23T14:01:50.518Z,99060.06
2023-04-23T14:04:18.575Z,99054.75
2023-04-23T14:06:45.462Z,99060.06
2023-04-23T14:09:12.156Z,99064.38
2023-04-23T14:11:40.519Z,99052.44
2023-04-23T14:14:07.676Z,99067.09
2023-04-23T14:16:34.702Z,99063.13
2023-04-23T14:19:01.329Z,99072.44
2023-04-23T14:21:27.891Z,99073.81
2023-04-23T14:24:17.988Z,99064.03
2023-04-23T14:26:49.320Z,99066.47
2023-04-23T14:29:22.526Z,99069.69
2023-04-23T14:31:49.153Z,99067.56
2023-04-23T14:34:16.404Z,99070.28
2023-04-23T14:36:42.983Z,99067.88
2023-04-23T14:39:09.508Z,99072.72
2023-04-23T14:41:36.209Z,99081.22
2023-04-23T14:44:03.245Z,99072.22
2023-04-23T14:46:29.907Z,99075.19
2023-04-23T14:48:56.508Z,99077.31
2023-04-23T14:51:24.605Z,99074.94
2023-04-23T14:53:51.440Z,99078.94
2023-04-23T14:56:17.965Z,99069.09
2023-04-23T14:58:44.699Z,99072.31
2023-04-23T15:01:11.852Z,99081.88
2023-04-23T15:03:38.913Z,99083.47
2023-04-23T15:06:06.993Z,99080.81
2023-04-23T15:08:34.016Z,99083.69
2023-04-23T15:11:00.667Z,99081.03
2023-04-23T15:13:33.098Z,99078.09
2023-04-23T15:16:03.014Z,99082.56
2023-04-23T15:18:29.705Z,99085.75
2023-04-23T15:20:56.260Z,99093.16
2023-04-23T15:23:24.221Z,99087.56
2023-04-23T15:25:52.437Z,99091.25
2023-04-23T15:28:19.033Z,99098.97
2023-04-23T15:30:47.581Z,99097.59
2023-04-23T15:33:14.155Z,99098.63
2023-04-23T15:35:40.755Z,99098.06
2023-04-23T15:38:07.337Z,99092.19
2023-04-23T15:40:41.946Z,99086.81
2023-04-23T15:43:13.264Z,99088.00
2023-04-23T15:45:39.992Z,99081.75
2023-04-23T15:48:06.491Z,99091.13
2023-04-23T15:50:33.084Z,99089.41
2023-04-23T15:53:01.465Z,99083.38
2023-04-23T15:55:28.935Z,99089.06
2023-04-23T15:57:55.848Z,99080.41
2023-04-23T16:00:22.442Z,99092.25
2023-04-23T16:02:49.468Z,99083.34
2023-04-23T16:05:16.460Z,99086.13
2023-04-23T16:07:44.370Z,99091.13
2023-04-23T16:10:11.124Z,99093.38
2023-04-23T16:12:38.295Z,99085.63
2023-04-23T16:15:05.327Z,99076.78
2023-04-23T16:17:31.894Z,99076.69
2023-04-23T16:19:58.470Z,99078.19
2023-04-23T16:22:25.572Z,99085.22
2023-04-23T16:24:52.174Z,99084.88
2023-04-23T16:27:19.389Z,99082.31
2023-04-23T16:29:45.868Z,99085.72
2023-04-23T16:32:12.543Z,99084.63
2023-04-23T16:34:39.358Z,99096.59
2023-04-23T16:37:06.181Z,99102.13
2023-04-23T16:39:33.238Z,99093.53
2023-04-23T16:42:00.380Z,99094.81
2023-04-23T16:44:26.919Z,99099.88
2023-04-23T16:46:53.701Z,99094.53
2023-04-23T16:49:21.952Z,99101.16
2023-04-23T16:51:49.026Z,99094.75
2023-04-23T16:54:15.624Z,99099.41
2023-04-23T16:56:45.289Z,99099.00
2023-04-23T16:59:12.492Z,99101.81
2023-04-23T17:01:38.986Z,99104.38
2023-04-23T17:04:05.787Z,99107.25
2023-04-23T17:06:32.971Z,99108.50
2023-04-23T17:09:03.177Z,99118.91
2023-04-23T17:11:30.771Z,99117.03
2023-04-23T17:13:58.885Z,99125.03
2023-04-23T17:16:29.087Z,99118.38
2023-04-23T17:18:56.005Z,99117.59
2023-04-23T17:21:23.297Z,99116.31
2023-04-23T17:23:49.904Z,99117.19
2023-04-23T17:26:16.562Z,99116.97
2023-04-23T17:28:43.033Z,99122.94
2023-04-23T17:31:09.755Z,99123.00
2023-04-23T17:33:36.419Z,99129.72
2023-04-23T17:36:03.241Z,99132.97
2023-04-23T17:38:29.848Z,99123.19
2023-04-23T17:40:56.628Z,99137.09
2023-04-23T17:43:23.143Z,99139.09
2023-04-23T17:45:49.878Z,99141.03
2023-04-23T17:48:16.536Z,99149.31
2023-04-23T17:50:43.715Z,99153.66
2023-04-23T17:53:10.552Z,99153.72
2023-04-23T17:55:37.094Z,99153.78
2023-04-23T17:58:05.801Z,99153.84
2023-04-23T18:00:41.768Z,99150.75
2023-04-23T18:03:10.080Z,99151.34
2023-04-23T18:05:36.842Z,99152.22
2023-04-23T18:08:04.467Z,99157.63
2023-04-23T18:10:31.280Z,99157.41
2023-04-23T18:12:57.882Z,99160.38
2023-04-23T18:15:25.820Z,99159.16
2023-04-23T18:17:55.800Z,99160.78
2023-04-23T18:20:24.713Z,99156.31
2023-04-23T18:22:53.624Z,99163.28
2023-04-23T18:25:20.299Z,99166.81
2023-04-23T18:27:47.084Z,99166.59
2023-04-23T18:30:15.393Z,99164.31
2023-04-23T18:32:47.000Z,99171.78
2023-04-23T18:35:14.165Z,99176.09
2023-04-23T18:37:49.024Z,99175.38
2023-04-23T18:40:15.549Z,99182.34
2023-04-23T18:42:42.059Z,99180.53
2023-04-23T18:45:10.659Z,99192.00
2023-04-23T18:47:46.123Z,99200.84
2023-04-23T18:50:36.944Z,99205.72
2023-04-23T18:53:04.224Z,99210.53
2023-04-23T18:55:31.088Z,99214.56
2023-04-23T18:57:57.681Z,99220.72
2023-04-23T19:00:24.322Z,99223.44
2023-04-23T19:02:51.041Z,99235.44
2023-04-23T19:05:17.846Z,99235.94
2023-04-23T19:07:44.391Z,99245.88
2023-04-23T19:10:14.395Z,99244.03
2023-04-23T19:12:40.946Z,99244.84
2023-04-23T19:15:08.131Z,99247.81
2023-04-23T19:17:35.612Z,99247.03
2023-04-23T19:20:02.357Z,99260.94
2023-04-23T19:22:28.869Z,99266.00
2023-04-23T19:24:55.370Z,99269.78
2023-04-23T19:27:22.060Z,99279.91
2023-04-23T19:29:49.379Z,99288.41
2023-04-23T19:32:15.977Z,99283.69
2023-04-23T19:34:42.522Z,99301.25
2023-04-23T19:37:09.086Z,99298.34
2023-04-23T19:39:35.648Z,99308.44
2023-04-23T19:42:02.801Z,99311.41
2023-04-23T19:44:29.389Z,99313.81
2023-04-23T19:46:56.577Z,99324.44
2023-04-23T19:49:23.265Z,99321.28
2023-04-23T19:51:53.086Z,99320.50
2023-04-23T19:54:19.701Z,99323.69
2023-04-23T19:56:46.527Z,99330.34
2023-04-23T19:59:20.833Z,99334.13
2023-04-23T20:01:48.297Z,99338.69
2023-04-23T20:04:15.966Z,99343.22
2023-04-23T20:06:43.372Z,99333.69
2023-04-23T20:09:19.185Z,99352.28
2023-04-23T20:11:46.200Z,99352.31
2023-04-23T20:14:13.048Z,99353.38
2023-04-23T20:16:40.768Z,99353.13
2023-04-23T20:19:11.149Z,99360.56
2023-04-23T20:21:39.023Z,99354.72
2023-04-23T20:24:09.989Z,99353.94
2023-04-23T20:26:37.916Z,99365.66
2023-04-23T20:29:05.024Z,99367.78
2023-04-23T20:31:31.924Z,99367.78
2023-04-23T20:33:58.463Z,99376.03
2023-04-23T20:36:28.826Z,99372.84
2023-04-23T20:38:58.072Z,99381.88
2023-04-23T20:41:26.562Z,99385.03
2023-04-23T20:43:53.077Z,99387.44
2023-04-23T20:46:19.695Z,99383.72
2023-04-23T20:48:46.192Z,99392.47
2023-04-23T20:51:13.049Z,99390.34
2023-04-23T20:53:39.616Z,99395.44
2023-04-23T20:56:06.388Z,99403.91
2023-04-23T20:58:32.919Z,99407.88
2023-04-23T21:00:59.475Z,99409.25
2023-04-23T21:03:26.106Z,99415.59
2023-04-23T21:05:52.962Z,99414.53
2023-04-23T21:08:19.683Z,99416.66
2023-04-23T21:10:46.697Z,99421.44
2023-04-23T21:13:13.293Z,99430.72
2023-04-23T21:15:39.880Z,99428.34
2023-04-23T21:18:06.605Z,99434.97
2023-04-23T21:20:33.185Z,99436.81
2023-04-23T21:22:59.712Z,99446.09
2023-04-23T21:25:26.788Z,99446.91
2023-04-23T21:27:57.032Z,99445.81
2023-04-23T21:31:25.513Z,99452.72
2023-04-23T21:33:52.006Z,99456.16
2023-04-23T21:36:18.463Z,99447.66
2023-04-23T21:38:44.966Z,99462.78
2023-04-23T21:41:11.487Z,99456.94
2023-04-23T21:43:38.353Z,99482.13
2023-04-23T21:46:05.112Z,99472.31
2023-04-23T21:48:32.056Z,99471.75
2023-04-23T21:50:58.523Z,99479.72
2023-04-23T21:53:25.155Z,99482.59
2023-04-23T21:55:51.637Z,99478.09
2023-04-23T21:58:18.375Z,99474.63
2023-04-23T22:00:45.839Z,99475.66
2023-04-23T22:03:13.748Z,99479.91
2023-04-23T22:05:52.408Z,99479.09
2023-04-23T22:08:19.013Z,99482.00
2023-04-23T22:10:45.544Z,99478.53
2023-04-23T22:13:12.096Z,99477.97
2023-04-23T22:15:38.573Z,99481.41
2023-04-23T22:18:05.619Z,99485.59
2023-04-23T22:20:32.370Z,99489.81
2023-04-23T22:22:58.895Z,99497.16
2023-04-23T22:25:25.364Z,99492.34
2023-04-23T22:27:51.904Z,99499.69
2023-04-23T22:30:18.585Z,99500.19
2023-04-23T22:32:45.088Z,99508.31
2023-04-23T22:35:11.986Z,99505.34
2023-04-23T22:37:38.707Z,99508.47
2023-04-23T22:40:07.792Z,99506.81
2023-04-23T22:42:34.305Z,99504.41
2023-04-23T22:45:01.092Z,99511.25
2023-04-23T22:47:27.706Z,99508.28
2023-04-23T22:49:54.359Z,99510.38
2023-04-23T22:52:20.895Z,99515.84
2023-04-23T22:54:48.418Z,99524.53
2023-04-23T22:57:14.999Z,99527.16
2023-04-23T22:59:42.190Z,99529.50
2023-04-23T23:02:09.085Z,99528.88
2023-04-23T23:04:39.266Z,99526.50
2023-04-23T23:07:06.367Z,99535.19
2023-04-23T23:09:33.229Z,99535.72
2023-04-23T23:12:02.473Z,99533.09
2023-04-23T23:14:29.787Z,99532.28
2023-04-23T23:16:57.168Z,99543.66
2023-04-23T23:19:24.623Z,99538.38
2023-04-23T23:21:51.555Z,99546.28
2023-04-23T23:24:19.117Z,99544.16
2023-04-23T23:26:46.687Z,99547.34
2023-04-23T23:29:13.241Z,99546.78
2023-04-23T23:31:39.809Z,99544.41
2023-04-23T23:34:06.421Z,99544.16
2023-04-23T23:36:34.094Z,99548.41
2023-04-23T23:39:01.311Z,99551.28
2023-04-23T23:41:27.950Z,99551.28
2023-04-23T23:43:54.795Z,99554.50
2023-04-23T23:46:21.470Z,99562.41
2023-04-23T23:48:48.250Z,99557.13
2023-04-23T23:51:14.804Z,99561.06
2023-04-23T23:53:41.361Z,99556.81
2023-04-23T23:56:07.932Z,99558.69
2023-04-23T23:58:34.478Z,99562.13
